x

Bay Of Campeche - 214 Nm Ne Of Veracruz, Mx (42055) Wave Buoy

5:50am - Tue 26th Jul 2016 All times are UTC.

  • Sig Wave height 3.9ft
  • Swell Direction
  • Peak Period 6s
  • Average Period 5s
  • Wind
    20mph, 25mph gusts
  • Sea Temp 86°f
  • Air Temp 85°f
  • Sea Pressure 1013.2mb

More Historic Weather Station data

Upgrade to MSW Pro to gain access to the past 30 days of data for over 8000 Wavebouys and Weather Stations around the globe.

Join Pro

Comparision Forecast

View Surf forecast
   
Tue 07/26 5:50am 4ft 6s 5s 20 25 mph 1013.2mb 86f 85f
4:50am 3.5ft 6s 5s 18 20 mph 1013.6mb 86f 85f
3:50am 3.5ft 6s 5s 16 20 mph 1013.6mb 86f 85f
2:50am 3ft 6s 4s 18 20 mph 1013.2mb 86f 85f
1:50am 3ft 6s 4s 16 18 mph 1012.8mb 86f 85f
12:50am 3ft 6s 5s 13 16 mph 1012.4mb 87f 85f
Mon 07/25 11:50pm 3ft 6s 4s 11 13 mph 1012.2mb 87f 86f
10:50pm 3ft 6s 4s 9 11 mph 1012.4mb 87f 86f
9:50pm 3ft 6s 4s 11 16 mph 1012.3mb 87f 86f
8:50pm 3.5ft 6s 5s 11 13 mph 1012.5mb 87f 86f
7:50pm 3.5ft 6s 5s 13 16 mph 1012.7mb 86f 86f
6:50pm 3.5ft 5s 4s 16 18 mph 1013.2mb 86f 86f
5:50pm 3.5ft 5s 4s 16 20 mph 1013.7mb 86f 86f
4:50pm 3.5ft 6s 4s 16 20 mph 1014mb 86f 86f
3:50pm 3.5ft 5s 4s 16 18 mph 1013.8mb 86f 87f
2:50pm 3ft 5s 4s 16 18 mph 1013.5mb 86f 87f
1:50pm 3ft 5s 4s 13 18 mph 1013.3mb 86f 86f
12:50pm 3ft 5s 4s 16 18 mph 1012.8mb 86f 86f
11:50am 2.5ft 5s 4s 16 18 mph 1012.4mb 86f 86f
10:50am 3ft 5s 4s 16 18 mph 1012mb 86f 85f
9:50am 2.5ft 5s 4s 16 20 mph 1012mb 86f 85f
8:50am 2.5ft 5s 4s 16 20 mph 1012.3mb 86f 85f
7:50am 2.5ft 5s 4s 16 18 mph 1012.4mb 86f 85f
6:50am 2.5ft 5s 4s 16 18 mph 1013mb 86f 85f
5:50am 2.5ft 5s 4s 13 16 mph 1013.5mb 86f 85f
4:50am 2.5ft 6s 4s 13 16 mph 1013.8mb 86f 85f
3:50am 2.5ft 5s 4s 13 16 mph 1013.6mb 86f 85f
2:50am 2.5ft 5s 4s 11 16 mph 1013.2mb 86f 85f
1:50am 2.5ft 5s 4s 11 13 mph 1013.1mb 87f 85f
12:50am 2.5ft 5s 4s 11 13 mph 1012.7mb 87f 85f
Sun 07/24 11:50pm 2.5ft 5s 4s 9
mph
1012.6mb 87f 86f
10:50pm 2.5ft 5s 4s 7 9 mph 1012.3mb 87f 86f
9:50pm 2.5ft 5s 4s 9 11 mph 1012.5mb 87f 86f
8:50pm 2.5ft 5s 4s 11 13 mph 1012.9mb 87f 86f
7:50pm 2.5ft 5s 4s 11 13 mph 1013.5mb 86f 85f
6:50pm 2.5ft 5s 4s 13 16 mph 1014mb 86f 85f
5:50pm 2.5ft 5s 4s 13 16 mph 1014.4mb 86f 85f
4:50pm 2.5ft 4s 4s 16 18 mph 1014.7mb 86f 85f
3:50pm 2.5ft 4s 4s 16 18 mph 1014.4mb 86f 85f
2:50pm 2.5ft 4s 4s 13 18 mph 1014.3mb 86f 85f
1:50pm 2.5ft 5s 4s 13 18 mph 1014mb 86f 85f
12:50pm 2.5ft 4s 4s 16 18 mph 1013.5mb 86f 85f
11:50am 2.5ft 4s 4s 13 16 mph 1012.9mb 86f 85f
10:50am 2ft 4s 4s 16 18 mph 1012.7mb 86f 85f
9:50am 2.5ft 4s 4s 16 20 mph 1012.9mb 86f 85f
8:50am 2ft 4s 3s 18 20 mph 1013.2mb 86f 85f
7:50am 2ft 4s 4s 16 18 mph 1013.3mb 86f 85f
6:50am 2ft 3s 4s 11 13 mph 1013.7mb 86f 85f
5:50am 1.6ft 4s 4s 13 16 mph 1014mb 86f 85f
4:50am 1.6ft 4s 4s 11 13 mph 1014.4mb 87f 85f
3:50am 1.6ft 4s 4s 13 16 mph 1014.2mb 87f 86f
2:50am 1.6ft 5s 4s 13 16 mph 1013.8mb 87f 86f
1:50am 1.3ft 4s 4s 11 13 mph 1013.1mb 87f 86f
12:50am 1.3ft 4s 4s 11 13 mph 1013.1mb 88f 86f
Sat 07/23 11:50pm 1.3ft 4s 4s 9 11 mph 1012.7mb 89f 87f
10:50pm 1.3ft 4s 4s 7
mph
1013.1mb 89f 87f
9:50pm 1.6ft 4s 4s 2 4 mph 1013.7mb 89f 87f
8:50pm 1.6ft 4s 4s 4 7 mph 1014.2mb 89f 86f
7:50pm 1.6ft 4s 4s 4 7 mph 1014.8mb 89f 86f
6:50pm 1.6ft 5s 4s 2 4 mph 1015.1mb 88f 86f
5:50pm 1.6ft 4s 4s 4 7 mph 1015.5mb 87f 86f
4:50pm 1.6ft 5s 4s 2 4 mph 1015.5mb 86f 85f
3:50pm 1.6ft 4s 4s 7 11 mph 1015.1mb 86f 85f
2:50pm 1.6ft 4s 4s 4 7 mph 1014.5mb 86f 85f
1:50pm 1.6ft 4s 4s 9 11 mph 1014.2mb 86f 85f
12:50pm 1.6ft 5s 4s 9
mph
1013.6mb 86f 85f
11:50am 1.6ft 4s 4s 7 9 mph 1013.3mb 86f 84f
10:50am 2ft 5s 4s 7 9 mph 1013.2mb 86f 84f
9:50am 2ft 4s 4s 7 11 mph 1013.5mb 86f 84f
8:50am 2ft 5s 4s 7 9 mph 1013.9mb 86f 85f
7:50am 2ft 5s 4s 9 11 mph 1014.3mb 86f 85f
6:50am 2ft 6s 4s 11 13 mph 1014.9mb 86f 85f
5:50am 2ft 5s 4s 11 13 mph 1015.7mb 86f 85f
4:50am 2ft 5s 4s 11 13 mph 1015.9mb 86f 85f
3:50am 2ft 6s 4s 11 13 mph 1015.7mb 86f 86f
2:50am 1.6ft 4s 4s 13 16 mph 1015mb 87f 85f
1:50am 1.6ft 5s 4s 11 13 mph 1014.8mb 87f 86f
12:50am 1.6ft 6s 4s 11 13 mph 1014.2mb 87f 86f
Fri 07/22 11:50pm 1.6ft 6s 4s 9 13 mph 1013.9mb 88f 86f
10:50pm 1.6ft 6s 5s 9 11 mph 1014.2mb 88f 86f
9:50pm 1.6ft 6s 5s 7 9 mph 1014.9mb 89f 86f
8:50pm 2ft 7s 5s 4 7 mph 1015.7mb 89f 86f
7:50pm 2ft 7s 4s 4
mph
1016.3mb 89f 85f
6:50pm 2ft 6s 4s 2 4 mph 1016.7mb 88f 85f
5:50pm 2ft 5s 4s 4 7 mph 1017.1mb 88f 85f
4:50pm 2ft 5s 5s 2 4 mph 1017mb 87f 85f
3:50pm 2ft 5s 4s 4 7 mph 1016.8mb 86f 84f
2:50pm 2.5ft 6s 5s 4
mph
1016.3mb 86f 84f
1:50pm 2.5ft 5s 5s 2 4 mph 1016.1mb 86f 85f
12:50pm 2.5ft 5s 5s 7 9 mph 1015.8mb 86f 84f
11:50am 2.5ft 6s 5s 7
mph
1015.2mb 86f 84f
10:50am 2.5ft 6s 5s 7 9 mph 1014.6mb 86f 84f
9:50am 2.5ft 4s 4s 9 11 mph 1015mb 86f 84f
8:50am 2.5ft 7s 5s 9 11 mph 1014.9mb 86f 84f
7:50am 2.5ft 5s 5s 9 11 mph 1015.4mb 86f 84f